CheckWX is a tool to help pilots better visualize weather data.  It is not intended as a substitute for an official pre-flight weather briefing.

05:25:52 UTC

KDTS METAR
Destin Executive Airport
Destin, Florida, USA
Current

33 mins ago

KDTS 180453Z AUTO 12011KT 10SM FEW019 FEW085 28/24 A2996 RMK AO2 SLP146 T02830239
Observed
Aug-18 @ 04:53 UTC
Wind
  • 120° at 11 KTS
Visibility
10 SM
Flight Rules
VFR
Cloud Levels
  • Few at 1,900' AGL
  • Few at 8,500' AGL
Temperature
28°C / 82°F
Dewpoint
24°C / 75°F
Heat Index
32°C / 89°F
Humidity
79%
Altimeter
29.96" Hg
Pressure
1014.52 hPa
Previous

57 mins ago

KDTS 180429Z AUTO 13010KT 10SM FEW021 SCT028 29/24 A2997 RMK AO2 T02890239
Observed
Aug-18 @ 04:29 UTC
Wind
  • 130° at 10 KTS
Visibility
10 SM
Flight Rules
VFR
Cloud Levels
  • Few at 2,100' AGL
  • Scattered at 2,800' AGL
Temperature
29°C / 84°F
Dewpoint
24°C / 75°F
Heat Index
33°C / 92°F
Humidity
74%
Altimeter
29.97" Hg
Pressure
1014.92 hPa
Previous

1 hour ago

KDTS 180420Z AUTO 13010KT 10SM SCT021 BKN028 29/24 A2997 RMK AO2 T02890244
Observed
Aug-18 @ 04:20 UTC
Wind
  • 130° at 10 KTS
Visibility
10 SM
Flight Rules
MVFR
Cloud Levels
  • Scattered at 2,100' AGL
  • Broken at 2,800' AGL
Temperature
29°C / 84°F
Dewpoint
24°C / 75°F
Heat Index
33°C / 92°F
Humidity
74%
Altimeter
29.97" Hg
Pressure
1014.92 hPa